createdAt,value
2019-05-12T00:01:13.181Z,5.80
2019-05-12T00:03:41.984Z,5.80
2019-05-12T00:06:11.136Z,5.70
2019-05-12T00:08:39.937Z,5.70
2019-05-12T00:11:09.060Z,5.70
2019-05-12T00:13:38.595Z,5.60
2019-05-12T00:16:08.790Z,5.60
2019-05-12T00:18:37.957Z,5.60
2019-05-12T00:21:08.829Z,5.50
2019-05-12T00:23:58.232Z,5.50
2019-05-12T00:26:28.307Z,5.40
2019-05-12T00:28:58.799Z,5.40
2019-05-12T00:31:28.144Z,5.40
2019-05-12T00:33:58.683Z,5.30
2019-05-12T00:36:29.410Z,5.30
2019-05-12T00:38:58.317Z,5.30
2019-05-12T00:41:28.378Z,5.20
2019-05-12T00:43:58.215Z,5.20
2019-05-12T00:46:27.861Z,5.20
2019-05-12T00:49:18.470Z,5.10
2019-05-12T00:51:48.567Z,5.10
2019-05-12T00:54:17.902Z,5.10
2019-05-12T00:56:49.310Z,5.10
2019-05-12T00:59:19.186Z,5.10
2019-05-12T01:01:48.556Z,5.00
2019-05-12T01:04:17.714Z,5.00
2019-05-12T01:06:48.673Z,5.00
2019-05-12T01:09:17.785Z,5.00
2019-05-12T01:11:48.126Z,4.90
2019-05-12T01:14:18.666Z,4.90
2019-05-12T01:16:48.622Z,4.90
2019-05-12T01:19:18.518Z,4.80
2019-05-12T01:22:08.110Z,4.80
2019-05-12T01:24:57.850Z,4.70
2019-05-12T01:27:48.249Z,4.70
2019-05-12T01:30:18.084Z,4.60
2019-05-12T01:32:48.399Z,4.60
2019-05-12T01:35:18.546Z,4.50
2019-05-12T01:37:48.387Z,4.50
2019-05-12T01:40:19.099Z,4.40
2019-05-12T01:42:48.769Z,4.30
2019-05-12T01:45:18.142Z,4.30
2019-05-12T01:47:48.572Z,4.20
2019-05-12T01:50:17.928Z,4.20
2019-05-12T01:52:47.837Z,4.10
2019-05-12T01:55:18.588Z,4.10
2019-05-12T01:57:48.616Z,4.00
2019-05-12T02:00:18.359Z,4.00
2019-05-12T02:02:48.118Z,3.90
2019-05-12T02:05:18.329Z,3.90
2019-05-12T02:07:50.401Z,3.90
2019-05-12T02:10:19.347Z,3.80
2019-05-12T02:12:49.191Z,3.80
2019-05-12T02:15:18.740Z,3.70
2019-05-12T02:17:48.282Z,3.70
2019-05-12T02:20:18.060Z,3.70
2019-05-12T02:22:47.872Z,3.60
2019-05-12T02:25:18.421Z,3.60
2019-05-12T02:27:47.819Z,3.50
2019-05-12T02:30:20.285Z,3.50
2019-05-12T02:32:53.717Z,3.40
2019-05-12T02:35:19.327Z,3.40
2019-05-12T02:37:48.140Z,3.40
2019-05-12T02:40:17.129Z,3.30
2019-05-12T02:42:46.569Z,3.30
2019-05-12T02:45:15.865Z,3.20
2019-05-12T02:47:45.850Z,3.20
2019-05-12T02:50:20.458Z,3.10
2019-05-12T02:52:49.880Z,3.10
2019-05-12T02:55:21.461Z,3.00
2019-05-12T02:57:50.455Z,3.00
2019-05-12T03:00:19.747Z,3.00
2019-05-12T03:02:48.631Z,2.90
2019-05-12T03:05:17.507Z,2.90
2019-05-12T03:07:47.648Z,2.90
2019-05-12T03:10:16.615Z,2.80
2019-05-12T03:12:45.511Z,2.80
2019-05-12T03:15:15.359Z,2.80
2019-05-12T03:17:44.522Z,2.80
2019-05-12T03:20:15.423Z,2.70
2019-05-12T03:22:44.967Z,2.70
2019-05-12T03:25:23.993Z,2.70
2019-05-12T03:27:44.651Z,2.70
2019-05-12T03:30:18.968Z,2.60
2019-05-12T03:32:47.449Z,2.60
2019-05-12T03:35:17.430Z,2.60
2019-05-12T03:37:45.772Z,2.50
2019-05-12T03:40:14.706Z,2.50
2019-05-12T03:42:44.583Z,2.50
2019-05-12T03:45:35.692Z,2.40
2019-05-12T03:48:04.296Z,2.40
2019-05-12T03:50:35.211Z,2.40
2019-05-12T03:53:10.258Z,2.30
2019-05-12T03:55:41.043Z,2.30
2019-05-12T03:58:06.312Z,2.30
2019-05-12T04:00:36.054Z,2.30
2019-05-12T04:03:05.625Z,2.30
2019-05-12T04:05:35.436Z,2.30
2019-05-12T04:08:05.768Z,2.30
2019-05-12T04:10:36.299Z,2.30
2019-05-12T04:13:05.848Z,2.30
2019-05-12T04:15:36.930Z,2.30
2019-05-12T04:18:06.539Z,2.30
2019-05-12T04:20:54.858Z,2.30
2019-05-12T04:23:24.760Z,2.30
2019-05-12T04:26:07.149Z,2.30
2019-05-12T04:28:24.716Z,2.30
2019-05-12T04:30:54.581Z,2.30
2019-05-12T04:33:25.746Z,2.40
2019-05-12T04:35:55.405Z,2.40
2019-05-12T04:38:25.021Z,2.40
2019-05-12T04:40:55.280Z,2.40
2019-05-12T04:43:25.354Z,2.40
2019-05-12T04:45:54.977Z,2.50
2019-05-12T04:48:25.736Z,2.50
2019-05-12T04:50:54.980Z,2.60
2019-05-12T04:53:25.162Z,2.60
2019-05-12T04:56:19.346Z,2.60
2019-05-12T04:58:45.209Z,2.70
2019-05-12T05:01:15.525Z,2.70
2019-05-12T05:03:44.677Z,2.80
2019-05-12T05:06:14.838Z,2.90
2019-05-12T05:08:44.443Z,3.00
2019-05-12T05:11:14.794Z,3.10
2019-05-12T05:13:44.569Z,3.20
2019-05-12T05:16:14.443Z,3.40
2019-05-12T05:18:44.075Z,3.50
2019-05-12T05:21:14.003Z,3.60
2019-05-12T05:23:44.313Z,3.80
2019-05-12T05:26:23.907Z,4.00
2019-05-12T05:28:43.914Z,4.20
2019-05-12T05:31:14.039Z,4.40
2019-05-12T05:33:43.579Z,4.60
2019-05-12T05:36:15.113Z,4.70
2019-05-12T05:38:43.756Z,4.90
2019-05-12T05:41:13.527Z,5.00
2019-05-12T05:43:43.803Z,5.20
2019-05-12T05:46:13.780Z,5.30
2019-05-12T05:48:43.965Z,5.40
2019-05-12T05:51:13.810Z,5.60
2019-05-12T05:53:44.268Z,5.70
2019-05-12T05:56:14.688Z,5.80
2019-05-12T05:58:46.972Z,5.90
2019-05-12T06:01:34.760Z,6.00
2019-05-12T06:04:08.269Z,6.10
2019-05-12T06:06:34.939Z,6.30
2019-05-12T06:09:06.808Z,6.40
2019-05-12T06:11:36.132Z,6.50
2019-05-12T06:14:11.449Z,6.70
2019-05-12T06:16:35.552Z,6.80
2019-05-12T06:19:04.440Z,6.90
2019-05-12T06:21:36.371Z,7.10
2019-05-12T06:24:08.701Z,7.20
2019-05-12T06:26:35.769Z,7.40
2019-05-12T06:29:05.044Z,7.50
2019-05-12T06:31:34.184Z,7.60
2019-05-12T06:34:06.264Z,7.80
2019-05-12T06:36:34.201Z,7.90
2019-05-12T06:39:04.479Z,8.10
2019-05-12T06:41:33.942Z,8.20
2019-05-12T06:44:03.825Z,8.40
2019-05-12T06:46:34.290Z,8.50
2019-05-12T06:49:10.132Z,8.60
2019-05-12T06:51:34.703Z,8.70
2019-05-12T06:54:10.391Z,8.90
2019-05-12T06:56:57.921Z,9.00
2019-05-12T06:59:24.618Z,9.00
2019-05-12T07:01:56.147Z,9.10
2019-05-12T07:04:25.209Z,9.20
2019-05-12T07:07:03.715Z,9.20
2019-05-12T07:09:35.322Z,9.30
2019-05-12T07:12:06.954Z,9.30
2019-05-12T07:14:34.569Z,9.30
2019-05-12T07:17:10.060Z,9.40
2019-05-12T07:19:39.157Z,9.50
2019-05-12T07:22:19.948Z,9.70
2019-05-12T07:24:40.937Z,9.80
2019-05-12T07:27:09.573Z,10.10
2019-05-12T07:29:38.377Z,10.20
2019-05-12T07:32:16.572Z,10.40
2019-05-12T07:34:38.157Z,10.50
2019-05-12T07:37:07.046Z,10.60
2019-05-12T07:39:44.523Z,10.80
2019-05-12T07:42:06.965Z,10.90
2019-05-12T07:44:40.019Z,10.90
2019-05-12T07:47:07.093Z,10.90
2019-05-12T07:49:38.579Z,11.10
2019-05-12T07:52:07.017Z,11.20
2019-05-12T07:54:39.423Z,11.40
2019-05-12T07:57:12.189Z,11.50
2019-05-12T07:59:40.934Z,11.60
2019-05-12T08:02:08.144Z,11.60
2019-05-12T08:04:39.942Z,11.70
2019-05-12T08:07:07.564Z,11.90
2019-05-12T08:09:36.766Z,12.10
2019-05-12T08:12:09.784Z,12.30
2019-05-12T08:14:36.543Z,12.50
2019-05-12T08:17:10.986Z,12.70
2019-05-12T08:19:36.451Z,12.70
2019-05-12T08:22:05.287Z,12.80
2019-05-12T08:24:43.194Z,13.00
2019-05-12T08:27:10.945Z,13.10
2019-05-12T08:29:39.821Z,13.20
2019-05-12T08:32:09.932Z,13.40
2019-05-12T08:34:43.736Z,13.60
2019-05-12T08:37:18.770Z,13.60
2019-05-12T08:39:53.417Z,13.70
2019-05-12T08:42:23.877Z,13.90
2019-05-12T08:44:54.267Z,14.00
2019-05-12T08:47:28.828Z,14.10
2019-05-12T08:49:58.314Z,14.10
2019-05-12T08:52:30.483Z,14.20
2019-05-12T08:55:04.101Z,14.10
2019-05-12T08:57:40.822Z,13.80
2019-05-12T09:00:08.674Z,13.60
2019-05-12T09:02:39.941Z,13.60
2019-05-12T09:05:08.694Z,13.70
2019-05-12T09:07:39.852Z,13.70
2019-05-12T09:10:08.260Z,13.80
2019-05-12T09:12:37.567Z,13.60
2019-05-12T09:15:08.353Z,13.60
2019-05-12T09:17:49.101Z,13.60
2019-05-12T09:20:10.134Z,13.80
2019-05-12T09:22:44.929Z,14.00
2019-05-12T09:25:15.138Z,14.20
2019-05-12T09:27:49.496Z,14.30
2019-05-12T09:30:29.219Z,14.50
2019-05-12T09:32:58.486Z,14.70
2019-05-12T09:35:28.592Z,14.70
2019-05-12T09:37:58.275Z,14.70
2019-05-12T09:40:27.266Z,14.70
2019-05-12T09:43:00.302Z,14.60
2019-05-12T09:45:33.399Z,14.70
2019-05-12T09:48:04.943Z,14.70
2019-05-12T09:50:37.792Z,14.50
2019-05-12T09:53:11.565Z,14.60
2019-05-12T09:55:43.619Z,14.80
2019-05-12T09:58:23.073Z,15.20
2019-05-12T10:00:45.696Z,15.30
2019-05-12T10:03:14.673Z,15.50
2019-05-12T10:05:44.239Z,15.70
2019-05-12T10:08:13.989Z,15.70
2019-05-12T10:10:46.749Z,15.60
2019-05-12T10:13:15.250Z,15.40
2019-05-12T10:15:44.411Z,15.30
2019-05-12T10:18:14.651Z,15.10
2019-05-12T10:20:44.275Z,15.20
2019-05-12T10:23:18.086Z,15.30
2019-05-12T10:25:44.693Z,15.30
2019-05-12T10:28:16.320Z,15.30
2019-05-12T10:30:47.181Z,15.40
2019-05-12T10:33:16.582Z,15.50
2019-05-12T10:35:45.776Z,15.50
2019-05-12T10:38:14.601Z,15.50
2019-05-12T10:40:44.414Z,15.80
2019-05-12T10:43:14.690Z,16.20
2019-05-12T10:45:44.243Z,16.40
2019-05-12T10:48:14.155Z,16.40
2019-05-12T10:50:44.239Z,16.50
2019-05-12T10:53:15.787Z,16.70
2019-05-12T10:55:44.516Z,16.60
2019-05-12T10:58:14.614Z,16.60
2019-05-12T11:00:44.390Z,16.60
2019-05-12T11:03:15.426Z,16.70
2019-05-12T11:05:44.795Z,16.90
2019-05-12T11:08:14.487Z,17.10
2019-05-12T11:10:43.722Z,17.20
2019-05-12T11:13:14.502Z,17.30
2019-05-12T11:15:46.254Z,17.00
2019-05-12T11:18:24.849Z,16.80
2019-05-12T11:20:50.169Z,16.70
2019-05-12T11:23:19.507Z,16.80
2019-05-12T11:25:48.407Z,16.90
2019-05-12T11:28:18.293Z,16.80
2019-05-12T11:30:47.552Z,16.90
2019-05-12T11:33:16.507Z,17.00
2019-05-12T11:35:45.428Z,16.90
2019-05-12T11:38:14.248Z,16.70
2019-05-12T11:40:43.897Z,16.60
2019-05-12T11:43:14.446Z,16.60
2019-05-12T11:45:44.176Z,16.90
2019-05-12T11:48:14.390Z,16.90
2019-05-12T11:50:47.864Z,16.70
2019-05-12T11:53:14.243Z,16.90
2019-05-12T11:55:43.776Z,17.00
2019-05-12T11:58:13.442Z,17.20
2019-05-12T12:00:45.333Z,17.40
2019-05-12T12:03:17.784Z,17.40
2019-05-12T12:05:45.118Z,17.70
2019-05-12T12:08:14.570Z,17.80
2019-05-12T12:10:43.809Z,18.00
2019-05-12T12:13:14.084Z,18.30
2019-05-12T12:15:43.208Z,18.50
2019-05-12T12:18:13.768Z,18.60
2019-05-12T12:20:44.283Z,18.60
2019-05-12T12:23:14.098Z,18.60
2019-05-12T12:25:48.078Z,18.20
2019-05-12T12:28:13.798Z,18.10
2019-05-12T12:30:47.354Z,17.90
2019-05-12T12:33:14.373Z,17.70
2019-05-12T12:35:44.489Z,17.70
2019-05-12T12:38:14.216Z,17.80
2019-05-12T12:40:44.190Z,18.00
2019-05-12T12:43:13.708Z,18.30
2019-05-12T12:46:03.710Z,18.60
2019-05-12T12:48:33.367Z,18.90
2019-05-12T12:51:03.988Z,19.20
2019-05-12T12:53:34.401Z,19.50
2019-05-12T12:56:04.328Z,19.60
2019-05-12T12:58:34.535Z,19.00
2019-05-12T13:01:04.486Z,18.70
2019-05-12T13:03:34.653Z,18.80
2019-05-12T13:06:04.781Z,18.90
2019-05-12T13:08:34.340Z,19.20
2019-05-12T13:11:04.323Z,19.00
2019-05-12T13:13:33.432Z,18.80
2019-05-12T13:16:04.124Z,18.80
2019-05-12T13:18:36.093Z,18.60
2019-05-12T13:21:03.637Z,18.60
2019-05-12T13:23:40.504Z,18.80
2019-05-12T13:26:04.277Z,19.10
2019-05-12T13:28:34.246Z,18.90
2019-05-12T13:31:09.062Z,18.80
2019-05-12T13:33:33.955Z,18.70
2019-05-12T13:36:04.289Z,18.80
2019-05-12T13:38:36.382Z,19.00
2019-05-12T13:41:04.494Z,19.30
2019-05-12T13:43:34.068Z,19.40
2019-05-12T13:46:03.986Z,19.20
2019-05-12T13:48:33.067Z,19.00
2019-05-12T13:51:10.385Z,19.20
2019-05-12T13:53:33.525Z,19.30
2019-05-12T13:56:04.697Z,19.30
2019-05-12T13:58:36.664Z,19.10
2019-05-12T14:01:19.120Z,19.10
2019-05-12T14:03:34.050Z,19.20
2019-05-12T14:06:03.666Z,19.30
2019-05-12T14:08:34.285Z,19.30
2019-05-12T14:11:03.250Z,19.20
2019-05-12T14:13:33.778Z,19.20
2019-05-12T14:16:06.517Z,19.00
2019-05-12T14:18:36.087Z,18.90
2019-05-12T14:21:04.298Z,18.80
2019-05-12T14:23:34.281Z,18.90
2019-05-12T14:26:07.516Z,18.90
2019-05-12T14:28:33.942Z,18.60
2019-05-12T14:31:03.085Z,18.30
2019-05-12T14:33:35.887Z,18.40
2019-05-12T14:36:04.091Z,18.50
2019-05-12T14:38:33.778Z,18.50
2019-05-12T14:41:09.626Z,18.50
2019-05-12T14:43:34.152Z,18.30
2019-05-12T14:46:06.289Z,18.40
2019-05-12T14:48:33.755Z,18.40
2019-05-12T14:51:03.506Z,18.30
2019-05-12T14:53:38.155Z,18.10
2019-05-12T14:56:03.937Z,18.10
2019-05-12T14:58:33.896Z,18.10
2019-05-12T15:01:03.891Z,18.00
2019-05-12T15:03:34.214Z,17.80
2019-05-12T15:06:04.752Z,17.80
2019-05-12T15:08:37.171Z,17.90
2019-05-12T15:11:04.648Z,17.70
2019-05-12T15:13:34.347Z,17.60
2019-05-12T15:16:03.625Z,17.50
2019-05-12T15:18:32.830Z,17.20
2019-05-12T15:21:03.613Z,17.20
2019-05-12T15:23:37.004Z,17.20
2019-05-12T15:26:04.323Z,17.40
2019-05-12T15:28:33.797Z,17.70
2019-05-12T15:31:03.781Z,17.70
2019-05-12T15:33:33.694Z,17.70
2019-05-12T15:36:04.669Z,17.60
2019-05-12T15:38:34.348Z,17.60
2019-05-12T15:41:04.296Z,17.60
2019-05-12T15:43:37.821Z,17.70
2019-05-12T15:46:04.289Z,17.50
2019-05-12T15:48:34.300Z,17.50
2019-05-12T15:51:05.213Z,17.30
2019-05-12T15:53:35.956Z,17.20
2019-05-12T15:56:13.903Z,17.10
2019-05-12T15:58:35.522Z,17.00
2019-05-12T16:01:04.596Z,17.10
2019-05-12T16:03:34.372Z,17.10
2019-05-12T16:06:10.093Z,17.10
2019-05-12T16:08:34.181Z,17.20
2019-05-12T16:11:05.106Z,17.30
2019-05-12T16:13:33.877Z,17.30
2019-05-12T16:16:06.128Z,17.10
2019-05-12T16:18:34.459Z,16.50
2019-05-12T16:21:06.627Z,16.30
2019-05-12T16:23:34.418Z,16.30
2019-05-12T16:26:10.305Z,16.30
2019-05-12T16:28:33.866Z,16.20
2019-05-12T16:31:07.109Z,16.10
2019-05-12T16:33:33.450Z,15.80
2019-05-12T16:36:06.576Z,15.70
2019-05-12T16:38:33.224Z,15.70
2019-05-12T16:41:03.834Z,15.80
2019-05-12T16:43:35.118Z,15.70
2019-05-12T16:46:04.412Z,15.60
2019-05-12T16:48:36.177Z,15.40
2019-05-12T16:51:04.338Z,15.40
2019-05-12T16:53:46.021Z,15.30
2019-05-12T16:56:14.916Z,15.30
2019-05-12T16:58:44.488Z,15.10
2019-05-12T17:01:14.469Z,15.00
2019-05-12T17:03:44.540Z,14.90
2019-05-12T17:06:14.298Z,14.80
2019-05-12T17:08:43.874Z,14.80
2019-05-12T17:11:24.415Z,14.80
2019-05-12T17:13:49.271Z,14.80
2019-05-12T17:16:14.980Z,14.70
2019-05-12T17:18:46.265Z,14.60
2019-05-12T17:21:17.805Z,14.20
2019-05-12T17:23:47.376Z,14.00
2019-05-12T17:26:16.236Z,13.90
2019-05-12T17:28:45.429Z,13.70
2019-05-12T17:31:14.347Z,13.60
2019-05-12T17:33:43.701Z,13.40
2019-05-12T17:36:17.575Z,13.30
2019-05-12T17:38:44.013Z,13.10
2019-05-12T17:41:17.382Z,12.90
2019-05-12T17:43:54.783Z,12.70
2019-05-12T17:46:18.108Z,12.60
2019-05-12T17:48:45.719Z,12.50
2019-05-12T17:51:20.349Z,12.40
2019-05-12T17:53:46.724Z,12.30
2019-05-12T17:56:15.818Z,12.10
2019-05-12T17:58:47.466Z,11.90
2019-05-12T18:01:15.856Z,11.70
2019-05-12T18:03:50.505Z,11.60
2019-05-12T18:06:20.452Z,11.60
2019-05-12T18:08:46.533Z,11.50
2019-05-12T18:11:16.091Z,11.50
2019-05-12T18:13:45.174Z,11.40
2019-05-12T18:16:20.408Z,11.40
2019-05-12T18:18:45.063Z,11.30
2019-05-12T18:21:21.350Z,11.20
2019-05-12T18:23:45.193Z,11.20
2019-05-12T18:26:16.033Z,11.10
2019-05-12T18:28:44.870Z,11.00
2019-05-12T18:31:14.928Z,10.90
2019-05-12T18:33:52.191Z,10.80
2019-05-12T18:36:14.557Z,10.70
2019-05-12T18:38:44.683Z,10.60
2019-05-12T18:41:14.624Z,10.40
2019-05-12T18:43:43.918Z,10.30
2019-05-12T18:46:14.062Z,10.30
2019-05-12T18:48:43.394Z,10.20
2019-05-12T18:51:16.794Z,10.20
2019-05-12T18:53:43.830Z,10.10
2019-05-12T18:56:19.855Z,10.00
2019-05-12T18:59:05.124Z,9.90
2019-05-12T19:01:39.623Z,9.80
2019-05-12T19:04:08.900Z,9.80
2019-05-12T19:06:37.780Z,9.80
2019-05-12T19:09:09.694Z,9.60
2019-05-12T19:11:41.964Z,9.60
2019-05-12T19:14:10.532Z,9.50
2019-05-12T19:16:39.532Z,9.40
2019-05-12T19:19:28.003Z,9.30
2019-05-12T19:22:04.975Z,9.20
2019-05-12T19:24:27.681Z,9.20
2019-05-12T19:26:56.543Z,9.10
2019-05-12T19:29:29.889Z,9.00
2019-05-12T19:32:06.638Z,8.90
2019-05-12T19:34:37.439Z,8.90
